sensor_id;sensor_type;location;lat;lon;timestamp;pressure;altitude;pressure_sealevel;temperature;humidity
70982;BME280;58640;51.320;9.456;2022-12-18T00:00:30;100773.25;;;-8.89;95.28
70982;BME280;58640;51.320;9.456;2022-12-18T00:02:55;100774.13;;;-8.89;94.57
70982;BME280;58640;51.320;9.456;2022-12-18T00:05:21;100777.63;;;-8.91;94.73
70982;BME280;58640;51.320;9.456;2022-12-18T00:07:46;100786.63;;;-9.12;95.95
70982;BME280;58640;51.320;9.456;2022-12-18T00:10:11;100778.13;;;-9.26;96.98
70982;BME280;58640;51.320;9.456;2022-12-18T00:12:37;100772.78;;;-9.17;96.72
70982;BME280;58640;51.320;9.456;2022-12-18T00:15:02;100779.03;;;-9.27;96.89
70982;BME280;58640;51.320;9.456;2022-12-18T00:17:28;100786.66;;;-9.15;96.34
70982;BME280;58640;51.320;9.456;2022-12-18T00:19:53;100790.28;;;-9.27;96.55
70982;BME280;58640;51.320;9.456;2022-12-18T00:22:18;100788.56;;;-9.26;96.69
70982;BME280;58640;51.320;9.456;2022-12-18T00:24:43;100782.50;;;-9.30;96.90
70982;BME280;58640;51.320;9.456;2022-12-18T00:27:09;100799.03;;;-9.31;96.60
70982;BME280;58640;51.320;9.456;2022-12-18T00:29:34;100790.94;;;-9.13;95.77
70982;BME280;58640;51.320;9.456;2022-12-18T00:31:59;100795.50;;;-9.27;96.24
70982;BME280;58640;51.320;9.456;2022-12-18T00:34:25;100795.59;;;-9.33;96.61
70982;BME280;58640;51.320;9.456;2022-12-18T00:36:50;100797.34;;;-9.35;96.79
70982;BME280;58640;51.320;9.456;2022-12-18T00:39:15;100798.25;;;-9.37;96.68
70982;BME280;58640;51.320;9.456;2022-12-18T00:41:41;100785.84;;;-9.19;96.37
70982;BME280;58640;51.320;9.456;2022-12-18T00:44:24;100786.91;;;-9.33;95.52
70982;BME280;58640;51.320;9.456;2022-12-18T00:46:50;100782.44;;;-9.25;95.95
70982;BME280;58640;51.320;9.456;2022-12-18T00:49:17;100771.22;;;-9.27;95.44
70982;BME280;58640;51.320;9.456;2022-12-18T00:51:44;100768.66;;;-9.32;95.11
70982;BME280;58640;51.320;9.456;2022-12-18T00:54:09;100772.13;;;-9.31;95.06
70982;BME280;58640;51.320;9.456;2022-12-18T00:56:37;100777.66;;;-9.55;95.39
70982;BME280;58640;51.320;9.456;2022-12-18T00:59:02;100781.00;;;-9.46;95.28
70982;BME280;58640;51.320;9.456;2022-12-18T01:01:27;100790.47;;;-9.40;94.69
70982;BME280;58640;51.320;9.456;2022-12-18T01:03:53;100797.69;;;-9.63;94.92
70982;BME280;58640;51.320;9.456;2022-12-18T01:06:18;100796.63;;;-9.46;94.74
70982;BME280;58640;51.320;9.456;2022-12-18T01:08:44;100807.03;;;-9.46;94.60
70982;BME280;58640;51.320;9.456;2022-12-18T01:11:11;100804.44;;;-9.47;93.65
70982;BME280;58640;51.320;9.456;2022-12-18T01:13:38;100810.63;;;-9.57;93.81
70982;BME280;58640;51.320;9.456;2022-12-18T01:16:03;100812.31;;;-9.50;93.77
70982;BME280;58640;51.320;9.456;2022-12-18T01:18:29;100808.88;;;-9.55;94.00
70982;BME280;58640;51.320;9.456;2022-12-18T01:20:54;100799.41;;;-9.59;94.10
70982;BME280;58640;51.320;9.456;2022-12-18T01:23:20;100808.94;;;-9.58;94.38
70982;BME280;58640;51.320;9.456;2022-12-18T01:25:45;100808.19;;;-9.68;94.90
70982;BME280;58640;51.320;9.456;2022-12-18T01:28:10;100819.25;;;-9.51;94.77
70982;BME280;58640;51.320;9.456;2022-12-18T01:30:36;100821.81;;;-9.49;94.16
70982;BME280;58640;51.320;9.456;2022-12-18T01:33:04;100824.44;;;-9.46;94.82
70982;BME280;58640;51.320;9.456;2022-12-18T01:35:30;100807.00;;;-9.44;93.93
70982;BME280;58640;51.320;9.456;2022-12-18T01:37:55;100820.22;;;-9.58;94.51
70982;BME280;58640;51.320;9.456;2022-12-18T01:40:20;100828.13;;;-9.65;95.31
70982;BME280;58640;51.320;9.456;2022-12-18T01:42:53;100822.78;;;-9.55;94.51
70982;BME280;58640;51.320;9.456;2022-12-18T01:48:01;100820.34;;;-9.71;95.21
70982;BME280;58640;51.320;9.456;2022-12-18T01:50:36;100811.78;;;-9.79;95.71
70982;BME280;58640;51.320;9.456;2022-12-18T01:53:16;100808.25;;;-9.74;95.44
70982;BME280;58640;51.320;9.456;2022-12-18T01:55:51;100803.84;;;-9.69;95.73
70982;BME280;58640;51.320;9.456;2022-12-18T01:58:19;100813.34;;;-9.65;95.02
70982;BME280;58640;51.320;9.456;2022-12-18T02:00:45;100816.91;;;-9.72;95.16
70982;BME280;58640;51.320;9.456;2022-12-18T02:03:11;100812.56;;;-9.73;95.25
70982;BME280;58640;51.320;9.456;2022-12-18T02:08:30;100804.72;;;-9.70;94.88
70982;BME280;58640;51.320;9.456;2022-12-18T02:14:00;100807.50;;;-9.83;94.78
70982;BME280;58640;51.320;9.456;2022-12-18T02:16:38;100810.00;;;-9.76;95.21
70982;BME280;58640;51.320;9.456;2022-12-18T02:19:39;100802.06;;;-9.67;94.87
70982;BME280;58640;51.320;9.456;2022-12-18T02:22:26;100812.41;;;-9.58;94.20
70982;BME280;58640;51.320;9.456;2022-12-18T02:27:39;100810.50;;;-9.45;93.00
70982;BME280;58640;51.320;9.456;2022-12-18T02:30:07;100811.41;;;-9.49;93.46
70982;BME280;58640;51.320;9.456;2022-12-18T02:32:39;100819.25;;;-9.48;92.80
70982;BME280;58640;51.320;9.456;2022-12-18T02:35:08;100814.19;;;-9.63;93.32
70982;BME280;58640;51.320;9.456;2022-12-18T02:37:36;100808.09;;;-9.62;93.64
70982;BME280;58640;51.320;9.456;2022-12-18T02:40:04;100801.38;;;-9.81;94.62
70982;BME280;58640;51.320;9.456;2022-12-18T02:42:30;100804.94;;;-9.88;94.50
70982;BME280;58640;51.320;9.456;2022-12-18T02:44:56;100804.19;;;-10.02;95.55
70982;BME280;58640;51.320;9.456;2022-12-18T02:47:24;100803.19;;;-9.89;95.50
70982;BME280;58640;51.320;9.456;2022-12-18T02:50:02;100802.41;;;-9.95;95.29
70982;BME280;58640;51.320;9.456;2022-12-18T02:53:06;100812.03;;;-10.00;95.44
70982;BME280;58640;51.320;9.456;2022-12-18T02:58:20;100813.75;;;-10.01;95.16
70982;BME280;58640;51.320;9.456;2022-12-18T03:00:52;100812.03;;;-10.03;95.18
70982;BME280;58640;51.320;9.456;2022-12-18T03:03:25;100816.38;;;-10.02;95.38
70982;BME280;58640;51.320;9.456;2022-12-18T03:06:13;100816.50;;;-10.13;95.11
70982;BME280;58640;51.320;9.456;2022-12-18T03:08:46;100812.13;;;-10.08;95.19
70982;BME280;58640;51.320;9.456;2022-12-18T03:11:13;100808.47;;;-9.95;94.66
70982;BME280;58640;51.320;9.456;2022-12-18T03:13:51;100800.78;;;-10.04;93.89
70982;BME280;58640;51.320;9.456;2022-12-18T03:16:24;100786.09;;;-10.08;94.05
70982;BME280;58640;51.320;9.456;2022-12-18T03:18:57;100787.00;;;-10.10;94.23
70982;BME280;58640;51.320;9.456;2022-12-18T03:21:29;100789.66;;;-10.16;94.32
70982;BME280;58640;51.320;9.456;2022-12-18T03:23:58;100787.13;;;-10.24;94.85
70982;BME280;58640;51.320;9.456;2022-12-18T03:26:25;100782.75;;;-10.20;95.03
70982;BME280;58640;51.320;9.456;2022-12-18T03:28:57;100789.69;;;-10.21;94.29
70982;BME280;58640;51.320;9.456;2022-12-18T03:31:26;100788.09;;;-10.31;95.10
70982;BME280;58640;51.320;9.456;2022-12-18T03:36:20;100788.75;;;-10.12;93.66
70982;BME280;58640;51.320;9.456;2022-12-18T03:38:46;100789.75;;;-10.27;93.43
70982;BME280;58640;51.320;9.456;2022-12-18T03:41:39;100794.97;;;-10.28;93.78
70982;BME280;58640;51.320;9.456;2022-12-18T03:44:28;100794.09;;;-10.24;92.92
70982;BME280;58640;51.320;9.456;2022-12-18T03:47:07;100782.78;;;-10.22;92.83
70982;BME280;58640;51.320;9.456;2022-12-18T03:52:28;100774.25;;;-10.36;93.39
70982;BME280;58640;51.320;9.456;2022-12-18T03:54:56;100773.47;;;-10.45;93.72
70982;BME280;58640;51.320;9.456;2022-12-18T03:57:26;100776.00;;;-10.39;93.72
70982;BME280;58640;51.320;9.456;2022-12-18T04:00:35;100777.75;;;-10.40;93.42
70982;BME280;58640;51.320;9.456;2022-12-18T04:02:55;100787.34;;;-10.43;94.35
70982;BME280;58640;51.320;9.456;2022-12-18T04:05:23;100784.72;;;-10.42;93.57
70982;BME280;58640;51.320;9.456;2022-12-18T04:07:51;100787.34;;;-10.48;93.88
70982;BME280;58640;51.320;9.456;2022-12-18T04:10:17;100789.13;;;-10.50;94.25
70982;BME280;58640;51.320;9.456;2022-12-18T04:12:43;100791.78;;;-10.60;94.28
70982;BME280;58640;51.320;9.456;2022-12-18T04:15:10;100790.09;;;-10.63;94.81
70982;BME280;58640;51.320;9.456;2022-12-18T04:17:36;100784.81;;;-10.54;93.91
70982;BME280;58640;51.320;9.456;2022-12-18T04:20:01;100791.72;;;-10.50;93.70
70982;BME280;58640;51.320;9.456;2022-12-18T04:22:27;100790.78;;;-10.43;93.89
70982;BME280;58640;51.320;9.456;2022-12-18T04:24:52;100795.22;;;-10.55;93.83
70982;BME280;58640;51.320;9.456;2022-12-18T04:27:18;100800.41;;;-10.54;93.99
70982;BME280;58640;51.320;9.456;2022-12-18T04:29:43;100801.28;;;-10.53;93.74
70982;BME280;58640;51.320;9.456;2022-12-18T04:32:08;100809.03;;;-10.49;93.68
70982;BME280;58640;51.320;9.456;2022-12-18T04:34:34;100802.16;;;-10.53;93.73
70982;BME280;58640;51.320;9.456;2022-12-18T04:36:59;100799.56;;;-10.57;94.12
70982;BME280;58640;51.320;9.456;2022-12-18T04:39:25;100791.78;;;-10.60;94.04
70982;BME280;58640;51.320;9.456;2022-12-18T04:41:50;100792.69;;;-10.63;93.87
70982;BME280;58640;51.320;9.456;2022-12-18T04:44:15;100792.75;;;-10.71;94.46
70982;BME280;58640;51.320;9.456;2022-12-18T04:46:41;100800.41;;;-10.54;94.54
70982;BME280;58640;51.320;9.456;2022-12-18T04:49:06;100802.22;;;-10.65;93.84
70982;BME280;58640;51.320;9.456;2022-12-18T04:51:31;100801.34;;;-10.64;94.19
70982;BME280;58640;51.320;9.456;2022-12-18T04:53:57;100806.53;;;-10.64;94.27
70982;BME280;58640;51.320;9.456;2022-12-18T04:56:23;100807.41;;;-10.63;94.14
70982;BME280;58640;51.320;9.456;2022-12-18T04:58:48;100817.00;;;-10.70;93.75
70982;BME280;58640;51.320;9.456;2022-12-18T05:01:16;100821.28;;;-10.64;93.95
70982;BME280;58640;51.320;9.456;2022-12-18T05:03:42;100813.47;;;-10.60;93.61
70982;BME280;58640;51.320;9.456;2022-12-18T05:06:08;100818.75;;;-10.69;93.74
70982;BME280;58640;51.320;9.456;2022-12-18T05:08:33;100811.69;;;-10.53;93.63
70982;BME280;58640;51.320;9.456;2022-12-18T05:11:00;100809.16;;;-10.62;93.03
70982;BME280;58640;51.320;9.456;2022-12-18T05:13:27;100816.94;;;-10.66;93.46
70982;BME280;58640;51.320;9.456;2022-12-18T05:15:53;100815.25;;;-10.68;93.35
70982;BME280;58640;51.320;9.456;2022-12-18T05:18:18;100816.16;;;-10.74;93.90
70982;BME280;58640;51.320;9.456;2022-12-18T05:20:44;100809.22;;;-10.72;93.72
70982;BME280;58640;51.320;9.456;2022-12-18T05:23:09;100816.13;;;-10.72;93.99
70982;BME280;58640;51.320;9.456;2022-12-18T05:25:34;100827.44;;;-10.75;93.82
70982;BME280;58640;51.320;9.456;2022-12-18T05:27:59;100824.84;;;-10.78;93.48
70982;BME280;58640;51.320;9.456;2022-12-18T05:30:25;100822.25;;;-10.78;93.53
70982;BME280;58640;51.320;9.456;2022-12-18T05:32:50;100836.13;;;-10.77;93.41
70982;BME280;58640;51.320;9.456;2022-12-18T05:35:16;100826.56;;;-10.78;93.36
70982;BME280;58640;51.320;9.456;2022-12-18T05:37:41;100829.19;;;-10.80;92.89
70982;BME280;58640;51.320;9.456;2022-12-18T05:40:07;100825.78;;;-10.88;92.78
70982;BME280;58640;51.320;9.456;2022-12-18T05:42:32;100824.91;;;-10.84;92.61
70982;BME280;58640;51.320;9.456;2022-12-18T05:44:58;100827.50;;;-10.82;93.04
70982;BME280;58640;51.320;9.456;2022-12-18T05:47:23;100825.78;;;-10.86;92.70
70982;BME280;58640;51.320;9.456;2022-12-18T05:49:48;100817.97;;;-10.88;92.67
70982;BME280;58640;51.320;9.456;2022-12-18T05:52:14;100809.34;;;-10.87;92.59
70982;BME280;58640;51.320;9.456;2022-12-18T05:54:39;100809.38;;;-10.94;91.53
70982;BME280;58640;51.320;9.456;2022-12-18T05:57:05;100813.72;;;-10.95;92.33
70982;BME280;58640;51.320;9.456;2022-12-18T05:59:30;100820.69;;;-11.03;92.77
70982;BME280;58640;51.320;9.456;2022-12-18T06:01:55;100825.03;;;-11.05;92.54
70982;BME280;58640;51.320;9.456;2022-12-18T06:04:21;100825.06;;;-11.11;92.77
70982;BME280;58640;51.320;9.456;2022-12-18T06:06:46;100822.47;;;-11.11;92.30
70982;BME280;58640;51.320;9.456;2022-12-18T06:09:11;100821.63;;;-11.13;91.83
70982;BME280;58640;51.320;9.456;2022-12-18T06:11:37;100822.47;;;-11.11;91.96
70982;BME280;58640;51.320;9.456;2022-12-18T06:14:04;100820.75;;;-11.13;91.62
70982;BME280;58640;51.320;9.456;2022-12-18T06:16:31;100817.31;;;-11.18;91.66
70982;BME280;58640;51.320;9.456;2022-12-18T06:18:58;100812.97;;;-11.18;91.46
70982;BME280;58640;51.320;9.456;2022-12-18T06:21:23;100816.50;;;-11.25;90.71
70982;BME280;58640;51.320;9.456;2022-12-18T06:23:49;100828.66;;;-11.31;90.75
70982;BME280;58640;51.320;9.456;2022-12-18T06:26:14;100842.47;;;-11.25;90.89
70982;BME280;58640;51.320;9.456;2022-12-18T06:28:40;100829.50;;;-11.32;90.70
70982;BME280;58640;51.320;9.456;2022-12-18T06:31:05;100829.53;;;-11.35;90.22
70982;BME280;58640;51.320;9.456;2022-12-18T06:33:32;100833.88;;;-11.42;90.25
70982;BME280;58640;51.320;9.456;2022-12-18T06:36:02;100825.25;;;-11.42;89.91
70982;BME280;58640;51.320;9.456;2022-12-18T06:38:28;100831.28;;;-11.42;90.21
70982;BME280;58640;51.320;9.456;2022-12-18T06:40:53;100833.91;;;-11.46;89.68
70982;BME280;58640;51.320;9.456;2022-12-18T06:43:19;100836.50;;;-11.51;89.60
70982;BME280;58640;51.320;9.456;2022-12-18T06:45:44;100836.47;;;-11.45;89.53
70982;BME280;58640;51.320;9.456;2022-12-18T06:48:09;100840.84;;;-11.51;89.51
70982;BME280;58640;51.320;9.456;2022-12-18T06:50:35;100842.56;;;-11.53;89.97
70982;BME280;58640;51.320;9.456;2022-12-18T06:53:00;100842.56;;;-11.53;89.87
70982;BME280;58640;51.320;9.456;2022-12-18T06:55:25;100834.81;;;-11.58;89.74
70982;BME280;58640;51.320;9.456;2022-12-18T06:57:51;100840.84;;;-11.53;89.86
70982;BME280;58640;51.320;9.456;2022-12-18T07:00:16;100837.38;;;-11.50;90.32
70982;BME280;58640;51.320;9.456;2022-12-18T07:02:42;100833.06;;;-11.54;90.32
70982;BME280;58640;51.320;9.456;2022-12-18T07:05:07;100832.19;;;-11.50;91.39
70982;BME280;58640;51.320;9.456;2022-12-18T07:07:35;100839.97;;;-11.52;91.50
70982;BME280;58640;51.320;9.456;2022-12-18T07:10:01;100843.41;;;-11.50;91.22
70982;BME280;58640;51.320;9.456;2022-12-18T07:12:27;100846.88;;;-11.48;91.48
70982;BME280;58640;51.320;9.456;2022-12-18T07:14:52;100851.19;;;-11.44;91.40
70982;BME280;58640;51.320;9.456;2022-12-18T07:17:17;100851.19;;;-11.41;91.45
70982;BME280;58640;51.320;9.456;2022-12-18T07:19:43;100862.41;;;-11.37;91.19
70982;BME280;58640;51.320;9.456;2022-12-18T07:22:08;100864.16;;;-11.39;91.36
70982;BME280;58640;51.320;9.456;2022-12-18T07:24:33;100872.81;;;-11.42;91.17
70982;BME280;58640;51.320;9.456;2022-12-18T07:26:59;100869.34;;;-11.44;90.92
70982;BME280;58640;51.320;9.456;2022-12-18T07:29:25;100876.28;;;-11.43;90.82
70982;BME280;58640;51.320;9.456;2022-12-18T07:31:50;100874.53;;;-11.38;90.97
70982;BME280;58640;51.320;9.456;2022-12-18T07:34:16;100878.84;;;-11.35;90.41
70982;BME280;58640;51.320;9.456;2022-12-18T07:36:42;100879.69;;;-11.30;90.34
70982;BME280;58640;51.320;9.456;2022-12-18T07:39:07;100884.91;;;-11.33;90.46
70982;BME280;58640;51.320;9.456;2022-12-18T07:41:33;100885.72;;;-11.21;90.51
70982;BME280;58640;51.320;9.456;2022-12-18T07:43:58;100884.00;;;-11.26;90.32
70982;BME280;58640;51.320;9.456;2022-12-18T07:46:24;100880.56;;;-11.30;90.15
70982;BME280;58640;51.320;9.456;2022-12-18T07:48:49;100881.41;;;-11.31;90.21
70982;BME280;58640;51.320;9.456;2022-12-18T07:51:15;100883.13;;;-11.25;89.59
70982;BME280;58640;51.320;9.456;2022-12-18T07:53:40;100881.44;;;-11.34;89.18
70982;BME280;58640;51.320;9.456;2022-12-18T07:56:09;100879.75;;;-11.41;89.07
70982;BME280;58640;51.320;9.456;2022-12-18T07:58:35;100877.97;;;-11.36;88.76
70982;BME280;58640;51.320;9.456;2022-12-18T08:01:10;100877.97;;;-11.34;88.37
70982;BME280;58640;51.320;9.456;2022-12-18T08:03:36;100872.78;;;-11.30;88.50
70982;BME280;58640;51.320;9.456;2022-12-18T08:06:08;100877.91;;;-11.19;88.54
70982;BME280;58640;51.320;9.456;2022-12-18T08:08:34;100865.78;;;-11.16;87.88
70982;BME280;58640;51.320;9.456;2022-12-18T08:10:59;100865.81;;;-11.22;88.23
70982;BME280;58640;51.320;9.456;2022-12-18T08:13:25;100861.47;;;-11.20;88.70
70982;BME280;58640;51.320;9.456;2022-12-18T08:15:58;100852.78;;;-11.14;88.74
70982;BME280;58640;51.320;9.456;2022-12-18T08:18:24;100859.69;;;-11.10;88.38
70982;BME280;58640;51.320;9.456;2022-12-18T08:20:49;100864.88;;;-11.06;88.35
70982;BME280;58640;51.320;9.456;2022-12-18T08:23:15;100862.28;;;-11.04;88.80
70982;BME280;58640;51.320;9.456;2022-12-18T08:25:40;100862.22;;;-10.97;89.16
70982;BME280;58640;51.320;9.456;2022-12-18T08:28:06;100861.31;;;-10.93;89.54
70982;BME280;58640;51.320;9.456;2022-12-18T08:30:31;100852.66;;;-10.92;89.54
70982;BME280;58640;51.320;9.456;2022-12-18T08:32:56;100848.25;;;-10.81;90.40
70982;BME280;58640;51.320;9.456;2022-12-18T08:35:21;100854.19;;;-10.60;89.83
70982;BME280;58640;51.320;9.456;2022-12-18T08:37:47;100848.06;;;-10.52;89.39
70982;BME280;58640;51.320;9.456;2022-12-18T08:40:12;100841.94;;;-10.43;90.33
70982;BME280;58640;51.320;9.456;2022-12-18T08:42:38;100851.19;;;-10.12;89.39
70982;BME280;58640;51.320;9.456;2022-12-18T08:45:22;100849.34;;;-10.04;88.64
70982;BME280;58640;51.320;9.456;2022-12-18T08:47:47;100842.00;;;-9.66;87.33
70982;BME280;58640;51.320;9.456;2022-12-18T08:50:12;100841.88;;;-9.54;86.40
70982;BME280;58640;51.320;9.456;2022-12-18T08:52:37;100843.25;;;-9.26;85.85
70982;BME280;58640;51.320;9.456;2022-12-18T08:55:03;100830.94;;;-9.15;85.07
70982;BME280;58640;51.320;9.456;2022-12-18T08:57:29;100826.03;;;-8.75;83.58
70982;BME280;58640;51.320;9.456;2022-12-18T08:59:54;100820.31;;;-8.44;81.58
70982;BME280;58640;51.320;9.456;2022-12-18T09:02:19;100825.34;;;-8.32;81.25
70982;BME280;58640;51.320;9.456;2022-12-18T09:04:47;100822.25;;;-8.05;81.69
70982;BME280;58640;51.320;9.456;2022-12-18T09:07:12;100821.44;;;-8.10;82.29
70982;BME280;58640;51.320;9.456;2022-12-18T09:09:38;100827.28;;;-7.96;82.49
70982;BME280;58640;51.320;9.456;2022-12-18T09:12:03;100823.97;;;-7.58;81.04
70982;BME280;58640;51.320;9.456;2022-12-18T09:14:28;100814.28;;;-7.51;81.72
70982;BME280;58640;51.320;9.456;2022-12-18T09:16:54;100813.72;;;-7.24;80.82
70982;BME280;58640;51.320;9.456;2022-12-18T09:19:19;100817.13;;;-7.22;79.72
70982;BME280;58640;51.320;9.456;2022-12-18T09:21:45;100816.72;;;-7.44;79.69
70982;BME280;58640;51.320;9.456;2022-12-18T09:24:14;100815.09;;;-7.51;81.05
70982;BME280;58640;51.320;9.456;2022-12-18T09:26:40;100814.28;;;-7.51;81.61
70982;BME280;58640;51.320;9.456;2022-12-18T09:29:05;100822.75;;;-7.40;81.02
70982;BME280;58640;51.320;9.456;2022-12-18T09:31:32;100824.59;;;-7.04;79.59
70982;BME280;58640;51.320;9.456;2022-12-18T09:33:58;100826.25;;;-7.02;79.63
70982;BME280;58640;51.320;9.456;2022-12-18T09:36:23;100807.38;;;-6.76;78.76
70982;BME280;58640;51.320;9.456;2022-12-18T09:38:48;100810.59;;;-6.64;78.00
70982;BME280;58640;51.320;9.456;2022-12-18T09:43:48;100803.84;;;-6.37;78.76
70982;BME280;58640;51.320;9.456;2022-12-18T09:46:23;100804.38;;;-5.91;77.96
70982;BME280;58640;51.320;9.456;2022-12-18T09:48:52;100808.38;;;-5.78;76.93
70982;BME280;58640;51.320;9.456;2022-12-18T09:51:26;100813.88;;;-5.87;76.79
70982;BME280;58640;51.320;9.456;2022-12-18T09:54:00;100814.97;;;-5.63;76.53
70982;BME280;58640;51.320;9.456;2022-12-18T09:56:28;100823.53;;;-5.58;76.29
70982;BME280;58640;51.320;9.456;2022-12-18T09:59:02;100829.06;;;-5.69;77.06
70982;BME280;58640;51.320;9.456;2022-12-18T10:01:28;100827.81;;;-5.54;77.11
70982;BME280;58640;51.320;9.456;2022-12-18T10:03:55;100822.31;;;-5.77;77.43
70982;BME280;58640;51.320;9.456;2022-12-18T10:06:44;100809.53;;;-5.88;78.55
70982;BME280;58640;51.320;9.456;2022-12-18T10:09:23;100802.59;;;-5.60;78.23
70982;BME280;58640;51.320;9.456;2022-12-18T10:14:34;100797.75;;;-4.85;76.91
70982;BME280;58640;51.320;9.456;2022-12-18T10:17:26;100802.25;;;-4.61;75.52
70982;BME280;58640;51.320;9.456;2022-12-18T10:20:33;100799.88;;;-4.40;75.53
70982;BME280;58640;51.320;9.456;2022-12-18T10:28:59;100785.88;;;-4.96;77.09
70982;BME280;58640;51.320;9.456;2022-12-18T10:31:27;100789.78;;;-5.09;78.03
70982;BME280;58640;51.320;9.456;2022-12-18T10:33:55;100791.13;;;-4.96;77.85
70982;BME280;58640;51.320;9.456;2022-12-18T10:36:23;100804.06;;;-5.19;78.59
70982;BME280;58640;51.320;9.456;2022-12-18T10:38:49;100802.91;;;-5.09;79.28
70982;BME280;58640;51.320;9.456;2022-12-18T10:43:48;100799.72;;;-4.91;79.02
70982;BME280;58640;51.320;9.456;2022-12-18T10:46:19;100803.47;;;-4.72;78.49
70982;BME280;58640;51.320;9.456;2022-12-18T10:52:14;100781.91;;;-5.09;80.41
70982;BME280;58640;51.320;9.456;2022-12-18T11:02:33;100768.88;;;-5.41;83.01
70982;BME280;58640;51.320;9.456;2022-12-18T11:04:52;100758.38;;;-5.70;84.65
70982;BME280;58640;51.320;9.456;2022-12-18T11:07:17;100759.34;;;-5.44;84.43
70982;BME280;58640;51.320;9.456;2022-12-18T11:09:42;100754.78;;;-5.68;85.88
70982;BME280;58640;51.320;9.456;2022-12-18T11:12:17;100755.38;;;-5.58;85.45
70982;BME280;58640;51.320;9.456;2022-12-18T11:14:48;100745.25;;;-5.70;86.30
70982;BME280;58640;51.320;9.456;2022-12-18T11:19:53;100745.63;;;-5.53;85.70
70982;BME280;58640;51.320;9.456;2022-12-18T11:22:26;100734.31;;;-5.54;86.10
70982;BME280;58640;51.320;9.456;2022-12-18T11:24:56;100723.38;;;-5.69;86.81
70982;BME280;58640;51.320;9.456;2022-12-18T11:27:22;100722.91;;;-5.82;87.93
70982;BME280;58640;51.320;9.456;2022-12-18T11:29:50;100722.66;;;-5.73;87.67
70982;BME280;58640;51.320;9.456;2022-12-18T11:32:35;100710.59;;;-5.49;86.49
70982;BME280;58640;51.320;9.456;2022-12-18T11:50:24;100703.59;;;-5.50;88.34
70982;BME280;58640;51.320;9.456;2022-12-18T11:52:50;100687.19;;;-5.28;87.93
70982;BME280;58640;51.320;9.456;2022-12-18T11:55:28;100677.56;;;-5.27;87.27
70982;BME280;58640;51.320;9.456;2022-12-18T12:00:49;100678.97;;;-5.16;87.37
70982;BME280;58640;51.320;9.456;2022-12-18T12:03:43;100679.28;;;-5.26;87.78
70982;BME280;58640;51.320;9.456;2022-12-18T12:09:21;100654.84;;;-5.01;87.50
70982;BME280;58640;51.320;9.456;2022-12-18T12:14:42;100642.50;;;-4.97;87.86
70982;BME280;58640;51.320;9.456;2022-12-18T12:23:05;100646.69;;;-4.92;87.13
70982;BME280;58640;51.320;9.456;2022-12-18T12:26:15;100649.56;;;-4.99;87.88
70982;BME280;58640;51.320;9.456;2022-12-18T12:31:30;100633.69;;;-4.95;88.10
70982;BME280;58640;51.320;9.456;2022-12-18T12:39:24;100619.03;;;-4.51;87.12
70982;BME280;58640;51.320;9.456;2022-12-18T12:41:53;100624.94;;;-4.44;86.81
70982;BME280;58640;51.320;9.456;2022-12-18T12:44:42;100604.97;;;-4.48;86.97
70982;BME280;58640;51.320;9.456;2022-12-18T12:47:18;100613.44;;;-4.40;87.27
70982;BME280;58640;51.320;9.456;2022-12-18T12:49:47;100614.50;;;-4.46;87.56
70982;BME280;58640;51.320;9.456;2022-12-18T12:52:35;100613.50;;;-4.43;88.23
70982;BME280;58640;51.320;9.456;2022-12-18T12:55:05;100611.28;;;-4.29;87.42
70982;BME280;58640;51.320;9.456;2022-12-18T12:57:39;100613.50;;;-4.42;87.89
70982;BME280;58640;51.320;9.456;2022-12-18T13:00:11;100620.28;;;-4.36;88.13
70982;BME280;58640;51.320;9.456;2022-12-18T13:02:59;100621.66;;;-4.26;88.25
70982;BME280;58640;51.320;9.456;2022-12-18T13:05:34;100618.06;;;-4.24;88.17
70982;BME280;58640;51.320;9.456;2022-12-18T13:08:06;100611.34;;;-4.08;87.48
70982;BME280;58640;51.320;9.456;2022-12-18T13:10:43;100624.94;;;-4.20;88.08
70982;BME280;58640;51.320;9.456;2022-12-18T13:13:12;100618.28;;;-4.30;88.97
70982;BME280;58640;51.320;9.456;2022-12-18T13:20:36;100617.78;;;-4.16;89.27
70982;BME280;58640;51.320;9.456;2022-12-18T13:25:49;100613.44;;;-4.17;89.71
70982;BME280;58640;51.320;9.456;2022-12-18T13:31:05;100617.28;;;-4.51;91.49
70982;BME280;58640;51.320;9.456;2022-12-18T13:33:38;100620.19;;;-4.58;92.13
70982;BME280;58640;51.320;9.456;2022-12-18T13:41:42;100621.59;;;-4.50;93.14
70982;BME280;58640;51.320;9.456;2022-12-18T13:44:33;100617.66;;;-4.36;92.14
70982;BME280;58640;51.320;9.456;2022-12-18T13:47:01;100615.25;;;-4.19;91.15
70982;BME280;58640;51.320;9.456;2022-12-18T13:49:41;100606.97;;;-4.07;90.54
70982;BME280;58640;51.320;9.456;2022-12-18T13:52:17;100600.72;;;-4.05;90.00
70982;BME280;58640;51.320;9.456;2022-12-18T13:54:49;100590.91;;;-4.00;90.37
70982;BME280;58640;51.320;9.456;2022-12-18T13:59:58;100597.91;;;-4.23;91.08
70982;BME280;58640;51.320;9.456;2022-12-18T14:02:27;100595.63;;;-4.32;91.75
70982;BME280;58640;51.320;9.456;2022-12-18T14:04:53;100599.03;;;-4.30;91.32
70982;BME280;58640;51.320;9.456;2022-12-18T14:07:22;100590.72;;;-4.18;91.41
70982;BME280;58640;51.320;9.456;2022-12-18T14:09:58;100587.53;;;-4.26;91.43
70982;BME280;58640;51.320;9.456;2022-12-18T14:12:28;100586.53;;;-4.24;91.47
70982;BME280;58640;51.320;9.456;2022-12-18T14:17:55;100588.47;;;-4.29;91.67
70982;BME280;58640;51.320;9.456;2022-12-18T14:20:22;100581.22;;;-4.45;93.12
70982;BME280;58640;51.320;9.456;2022-12-18T14:22:49;100586.59;;;-4.48;92.98
70982;BME280;58640;51.320;9.456;2022-12-18T14:25:19;100588.19;;;-4.44;93.05
70982;BME280;58640;51.320;9.456;2022-12-18T14:30:36;100577.56;;;-4.41;92.59
70982;BME280;58640;51.320;9.456;2022-12-18T14:33:12;100585.72;;;-4.49;93.03
70982;BME280;58640;51.320;9.456;2022-12-18T14:35:42;100583.91;;;-4.47;93.16
70982;BME280;58640;51.320;9.456;2022-12-18T14:38:20;100583.91;;;-4.47;93.42
70982;BME280;58640;51.320;9.456;2022-12-18T14:40:47;100581.34;;;-4.48;93.45
70982;BME280;58640;51.320;9.456;2022-12-18T14:43:20;100583.34;;;-4.32;92.87